sensor_id;sensor_type;location;lat;lon;timestamp;P1;durP1;ratioP1;P2;durP2;ratioP2
76548;SDS011;65391;52.068;4.542;2023-09-19T00:02:18;7.3;;;1.5;;
76548;SDS011;65391;52.068;4.542;2023-09-19T00:04:43;7.3;;;1.5;;
76548;SDS011;65391;52.068;4.542;2023-09-19T00:07:09;6.8;;;1.3;;
76548;SDS011;65391;52.068;4.542;2023-09-19T00:09:33;6.8;;;1.3;;
76548;SDS011;65391;52.068;4.542;2023-09-19T00:11:58;6.8;;;1.3;;
76548;SDS011;65391;52.068;4.542;2023-09-19T00:14:24;6.8;;;1.3;;
76548;SDS011;65391;52.068;4.542;2023-09-19T00:16:48;5.2;;;1.3;;
76548;SDS011;65391;52.068;4.542;2023-09-19T00:19:14;5.2;;;1.3;;
76548;SDS011;65391;52.068;4.542;2023-09-19T00:21:38;5.2;;;1.3;;
76548;SDS011;65391;52.068;4.542;2023-09-19T00:24:04;5.2;;;1.3;;
76548;SDS011;65391;52.068;4.542;2023-09-19T00:26:28;3.6;;;1.2;;
76548;SDS011;65391;52.068;4.542;2023-09-19T00:28:54;3.6;;;1.2;;
76548;SDS011;65391;52.068;4.542;2023-09-19T00:31:19;3.6;;;1.2;;
76548;SDS011;65391;52.068;4.542;2023-09-19T00:33:44;3.6;;;1.2;;
76548;SDS011;65391;52.068;4.542;2023-09-19T00:36:09;3.6;;;1.2;;
76548;SDS011;65391;52.068;4.542;2023-09-19T00:38:34;10.1;;;1.4;;
76548;SDS011;65391;52.068;4.542;2023-09-19T00:40:59;10.1;;;1.4;;
76548;SDS011;65391;52.068;4.542;2023-09-19T00:43:24;10.1;;;1.4;;
76548;SDS011;65391;52.068;4.542;2023-09-19T00:45:50;10.1;;;1.4;;
76548;SDS011;65391;52.068;4.542;2023-09-19T00:48:14;5.2;;;1.1;;
76548;SDS011;65391;52.068;4.542;2023-09-19T00:50:39;5.2;;;1.1;;
76548;SDS011;65391;52.068;4.542;2023-09-19T00:53:04;5.2;;;1.1;;
76548;SDS011;65391;52.068;4.542;2023-09-19T00:55:29;5.2;;;1.1;;
76548;SDS011;65391;52.068;4.542;2023-09-19T00:57:55;6.2;;;1.6;;
76548;SDS011;65391;52.068;4.542;2023-09-19T01:00:19;6.2;;;1.6;;
76548;SDS011;65391;52.068;4.542;2023-09-19T01:02:44;6.2;;;1.6;;
76548;SDS011;65391;52.068;4.542;2023-09-19T01:05:09;6.2;;;1.6;;
76548;SDS011;65391;52.068;4.542;2023-09-19T01:07:34;7.4;;;1.8;;
76548;SDS011;65391;52.068;4.542;2023-09-19T01:09:59;7.4;;;1.8;;
76548;SDS011;65391;52.068;4.542;2023-09-19T01:12:28;7.4;;;1.8;;
76548;SDS011;65391;52.068;4.542;2023-09-19T01:14:51;7.4;;;1.8;;
76548;SDS011;65391;52.068;4.542;2023-09-19T01:17:16;8.2;;;2.2;;
76548;SDS011;65391;52.068;4.542;2023-09-19T01:19:54;8.2;;;2.2;;
76548;SDS011;65391;52.068;4.542;2023-09-19T01:22:08;8.2;;;2.2;;
76548;SDS011;65391;52.068;4.542;2023-09-19T01:24:49;8.2;;;2.2;;
76548;SDS011;65391;52.068;4.542;2023-09-19T01:27:04;9.3;;;1.5;;
76548;SDS011;65391;52.068;4.542;2023-09-19T01:29:33;9.3;;;1.5;;
76548;SDS011;65391;52.068;4.542;2023-09-19T01:31:44;9.3;;;1.5;;
76548;SDS011;65391;52.068;4.542;2023-09-19T01:34:09;9.3;;;1.5;;
76548;SDS011;65391;52.068;4.542;2023-09-19T01:36:35;6.9;;;1.7;;
76548;SDS011;65391;52.068;4.542;2023-09-19T01:38:59;6.9;;;1.7;;
76548;SDS011;65391;52.068;4.542;2023-09-19T01:41:27;6.9;;;1.7;;
76548;SDS011;65391;52.068;4.542;2023-09-19T01:43:49;6.9;;;1.7;;
76548;SDS011;65391;52.068;4.542;2023-09-19T01:46:15;6.9;;;1.7;;
76548;SDS011;65391;52.068;4.542;2023-09-19T01:48:41;10.5;;;1.6;;
76548;SDS011;65391;52.068;4.542;2023-09-19T01:51:05;10.5;;;1.6;;
76548;SDS011;65391;52.068;4.542;2023-09-19T01:53:33;10.5;;;1.6;;
76548;SDS011;65391;52.068;4.542;2023-09-19T01:55:54;10.5;;;1.6;;
76548;SDS011;65391;52.068;4.542;2023-09-19T01:58:21;11.2;;;1.5;;
76548;SDS011;65391;52.068;4.542;2023-09-19T02:00:44;11.2;;;1.5;;
76548;SDS011;65391;52.068;4.542;2023-09-19T02:03:09;11.2;;;1.5;;
76548;SDS011;65391;52.068;4.542;2023-09-19T02:05:34;11.2;;;1.5;;
76548;SDS011;65391;52.068;4.542;2023-09-19T02:07:59;11.3;;;2.3;;
76548;SDS011;65391;52.068;4.542;2023-09-19T02:10:24;11.3;;;2.3;;
76548;SDS011;65391;52.068;4.542;2023-09-19T02:12:49;11.3;;;2.3;;
76548;SDS011;65391;52.068;4.542;2023-09-19T02:15:15;11.3;;;2.3;;
76548;SDS011;65391;52.068;4.542;2023-09-19T02:17:39;10.5;;;1.3;;
76548;SDS011;65391;52.068;4.542;2023-09-19T02:20:04;10.5;;;1.3;;
76548;SDS011;65391;52.068;4.542;2023-09-19T02:22:29;10.5;;;1.3;;
76548;SDS011;65391;52.068;4.542;2023-09-19T02:24:54;10.5;;;1.3;;
76548;SDS011;65391;52.068;4.542;2023-09-19T02:27:19;7.9;;;1.3;;
76548;SDS011;65391;52.068;4.542;2023-09-19T02:29:44;7.9;;;1.3;;
76548;SDS011;65391;52.068;4.542;2023-09-19T02:32:09;7.9;;;1.3;;
76548;SDS011;65391;52.068;4.542;2023-09-19T02:34:34;7.9;;;1.3;;
76548;SDS011;65391;52.068;4.542;2023-09-19T02:36:59;10.4;;;2.1;;
76548;SDS011;65391;52.068;4.542;2023-09-19T02:39:24;10.4;;;2.1;;
76548;SDS011;65391;52.068;4.542;2023-09-19T02:41:49;10.4;;;2.1;;
76548;SDS011;65391;52.068;4.542;2023-09-19T02:44:14;10.4;;;2.1;;
76548;SDS011;65391;52.068;4.542;2023-09-19T02:46:39;8.5;;;1.7;;
76548;SDS011;65391;52.068;4.542;2023-09-19T02:49:04;8.5;;;1.7;;
76548;SDS011;65391;52.068;4.542;2023-09-19T02:51:29;8.5;;;1.7;;
76548;SDS011;65391;52.068;4.542;2023-09-19T02:53:54;8.5;;;1.7;;
76548;SDS011;65391;52.068;4.542;2023-09-19T02:56:19;8.5;;;1.7;;
76548;SDS011;65391;52.068;4.542;2023-09-19T02:58:44;10.3;;;1.7;;
76548;SDS011;65391;52.068;4.542;2023-09-19T03:01:09;10.3;;;1.7;;
76548;SDS011;65391;52.068;4.542;2023-09-19T03:03:34;10.3;;;1.7;;
76548;SDS011;65391;52.068;4.542;2023-09-19T03:05:59;10.3;;;1.7;;
76548;SDS011;65391;52.068;4.542;2023-09-19T03:08:24;7.1;;;1.5;;
76548;SDS011;65391;52.068;4.542;2023-09-19T03:10:49;7.1;;;1.5;;
76548;SDS011;65391;52.068;4.542;2023-09-19T03:13:14;7.1;;;1.5;;
76548;SDS011;65391;52.068;4.542;2023-09-19T03:15:41;7.1;;;1.5;;
76548;SDS011;65391;52.068;4.542;2023-09-19T03:18:04;6.3;;;1.4;;
76548;SDS011;65391;52.068;4.542;2023-09-19T03:20:29;6.3;;;1.4;;
76548;SDS011;65391;52.068;4.542;2023-09-19T03:22:54;6.3;;;1.4;;
76548;SDS011;65391;52.068;4.542;2023-09-19T03:25:19;6.3;;;1.4;;
76548;SDS011;65391;52.068;4.542;2023-09-19T03:27:44;5.3;;;1.3;;
76548;SDS011;65391;52.068;4.542;2023-09-19T03:30:09;5.3;;;1.3;;
76548;SDS011;65391;52.068;4.542;2023-09-19T03:32:34;5.3;;;1.3;;
76548;SDS011;65391;52.068;4.542;2023-09-19T03:35:00;5.3;;;1.3;;
76548;SDS011;65391;52.068;4.542;2023-09-19T03:37:24;7.7;;;1.2;;
76548;SDS011;65391;52.068;4.542;2023-09-19T03:39:50;7.7;;;1.2;;
76548;SDS011;65391;52.068;4.542;2023-09-19T03:42:14;7.7;;;1.2;;
76548;SDS011;65391;52.068;4.542;2023-09-19T03:44:39;7.7;;;1.2;;
76548;SDS011;65391;52.068;4.542;2023-09-19T03:47:04;7.1;;;1.5;;
76548;SDS011;65391;52.068;4.542;2023-09-19T03:49:29;7.1;;;1.5;;
76548;SDS011;65391;52.068;4.542;2023-09-19T03:51:54;7.1;;;1.5;;
76548;SDS011;65391;52.068;4.542;2023-09-19T03:54:19;7.1;;;1.5;;
76548;SDS011;65391;52.068;4.542;2023-09-19T03:56:44;6.9;;;1.1;;
76548;SDS011;65391;52.068;4.542;2023-09-19T03:59:09;6.9;;;1.1;;
76548;SDS011;65391;52.068;4.542;2023-09-19T04:01:34;6.9;;;1.1;;
76548;SDS011;65391;52.068;4.542;2023-09-19T04:03:59;6.9;;;1.1;;
76548;SDS011;65391;52.068;4.542;2023-09-19T04:06:24;6.9;;;1.1;;
76548;SDS011;65391;52.068;4.542;2023-09-19T04:08:49;3.5;;;0.7;;
76548;SDS011;65391;52.068;4.542;2023-09-19T04:11:14;3.5;;;0.7;;
76548;SDS011;65391;52.068;4.542;2023-09-19T04:13:39;3.5;;;0.7;;
76548;SDS011;65391;52.068;4.542;2023-09-19T04:16:04;3.5;;;0.7;;
76548;SDS011;65391;52.068;4.542;2023-09-19T04:18:29;5.6;;;1.3;;
76548;SDS011;65391;52.068;4.542;2023-09-19T04:20:54;5.6;;;1.3;;
76548;SDS011;65391;52.068;4.542;2023-09-19T04:23:19;5.6;;;1.3;;
76548;SDS011;65391;52.068;4.542;2023-09-19T04:25:44;5.6;;;1.3;;
76548;SDS011;65391;52.068;4.542;2023-09-19T04:28:09;6.4;;;1.2;;
76548;SDS011;65391;52.068;4.542;2023-09-19T04:30:34;6.4;;;1.2;;
76548;SDS011;65391;52.068;4.542;2023-09-19T04:32:59;6.4;;;1.2;;
76548;SDS011;65391;52.068;4.542;2023-09-19T04:35:24;6.4;;;1.2;;
76548;SDS011;65391;52.068;4.542;2023-09-19T04:37:50;7.6;;;1.3;;
76548;SDS011;65391;52.068;4.542;2023-09-19T04:40:14;7.6;;;1.3;;
76548;SDS011;65391;52.068;4.542;2023-09-19T04:42:39;7.6;;;1.3;;
76548;SDS011;65391;52.068;4.542;2023-09-19T04:45:05;7.6;;;1.3;;
76548;SDS011;65391;52.068;4.542;2023-09-19T04:47:29;6.3;;;1.1;;
76548;SDS011;65391;52.068;4.542;2023-09-19T04:49:54;6.3;;;1.1;;
76548;SDS011;65391;52.068;4.542;2023-09-19T04:52:19;6.3;;;1.1;;
76548;SDS011;65391;52.068;4.542;2023-09-19T04:54:44;6.3;;;1.1;;
76548;SDS011;65391;52.068;4.542;2023-09-19T04:57:09;8;;;1.4;;
76548;SDS011;65391;52.068;4.542;2023-09-19T04:59:34;8;;;1.4;;
76548;SDS011;65391;52.068;4.542;2023-09-19T05:01:59;8;;;1.4;;
76548;SDS011;65391;52.068;4.542;2023-09-19T05:04:24;8;;;1.4;;
76548;SDS011;65391;52.068;4.542;2023-09-19T05:06:49;5.5;;;1.6;;
76548;SDS011;65391;52.068;4.542;2023-09-19T05:09:14;5.5;;;1.6;;
76548;SDS011;65391;52.068;4.542;2023-09-19T05:11:40;5.5;;;1.6;;
76548;SDS011;65391;52.068;4.542;2023-09-19T05:14:04;5.5;;;1.6;;
76548;SDS011;65391;52.068;4.542;2023-09-19T05:16:29;5.5;;;1.6;;
76548;SDS011;65391;52.068;4.542;2023-09-19T05:18:54;4.8;;;1.7;;
76548;SDS011;65391;52.068;4.542;2023-09-19T05:21:19;4.8;;;1.7;;
76548;SDS011;65391;52.068;4.542;2023-09-19T05:23:44;4.8;;;1.7;;
76548;SDS011;65391;52.068;4.542;2023-09-19T05:26:09;4.8;;;1.7;;
76548;SDS011;65391;52.068;4.542;2023-09-19T05:28:34;10.7;;;1.7;;
76548;SDS011;65391;52.068;4.542;2023-09-19T05:31:00;10.7;;;1.7;;
76548;SDS011;65391;52.068;4.542;2023-09-19T05:33:25;10.7;;;1.7;;
76548;SDS011;65391;52.068;4.542;2023-09-19T05:35:49;10.7;;;1.7;;
76548;SDS011;65391;52.068;4.542;2023-09-19T05:38:14;7;;;1.4;;
76548;SDS011;65391;52.068;4.542;2023-09-19T05:40:39;7;;;1.4;;
76548;SDS011;65391;52.068;4.542;2023-09-19T05:43:04;7;;;1.4;;
76548;SDS011;65391;52.068;4.542;2023-09-19T05:45:29;7;;;1.4;;
76548;SDS011;65391;52.068;4.542;2023-09-19T05:47:54;5.1;;;1.4;;
76548;SDS011;65391;52.068;4.542;2023-09-19T05:50:19;5.1;;;1.4;;
76548;SDS011;65391;52.068;4.542;2023-09-19T05:52:47;5.1;;;1.4;;
76548;SDS011;65391;52.068;4.542;2023-09-19T05:55:09;5.1;;;1.4;;
76548;SDS011;65391;52.068;4.542;2023-09-19T05:57:34;7.2;;;1.8;;
76548;SDS011;65391;52.068;4.542;2023-09-19T06:00:00;7.2;;;1.8;;
76548;SDS011;65391;52.068;4.542;2023-09-19T06:02:24;7.2;;;1.8;;
76548;SDS011;65391;52.068;4.542;2023-09-19T06:04:49;7.2;;;1.8;;
76548;SDS011;65391;52.068;4.542;2023-09-19T06:07:14;12.5;;;1.5;;
76548;SDS011;65391;52.068;4.542;2023-09-19T06:09:39;12.5;;;1.5;;
76548;SDS011;65391;52.068;4.542;2023-09-19T06:12:05;12.5;;;1.5;;
76548;SDS011;65391;52.068;4.542;2023-09-19T06:14:29;12.5;;;1.5;;
76548;SDS011;65391;52.068;4.542;2023-09-19T06:16:54;14.9;;;1.5;;
76548;SDS011;65391;52.068;4.542;2023-09-19T06:19:19;14.9;;;1.5;;
76548;SDS011;65391;52.068;4.542;2023-09-19T06:21:44;14.9;;;1.5;;
76548;SDS011;65391;52.068;4.542;2023-09-19T06:24:09;14.9;;;1.5;;
76548;SDS011;65391;52.068;4.542;2023-09-19T06:26:34;14.9;;;1.5;;
76548;SDS011;65391;52.068;4.542;2023-09-19T06:28:59;8.8;;;2;;
76548;SDS011;65391;52.068;4.542;2023-09-19T06:31:24;8.8;;;2;;
76548;SDS011;65391;52.068;4.542;2023-09-19T06:33:49;8.8;;;2;;
76548;SDS011;65391;52.068;4.542;2023-09-19T06:36:14;8.8;;;2;;
76548;SDS011;65391;52.068;4.542;2023-09-19T06:38:39;11.6;;;2;;
76548;SDS011;65391;52.068;4.542;2023-09-19T06:41:04;11.6;;;2;;
76548;SDS011;65391;52.068;4.542;2023-09-19T06:43:30;11.6;;;2;;
76548;SDS011;65391;52.068;4.542;2023-09-19T06:45:54;11.6;;;2;;
76548;SDS011;65391;52.068;4.542;2023-09-19T06:48:19;10;;;1.6;;
76548;SDS011;65391;52.068;4.542;2023-09-19T06:50:44;10;;;1.6;;
76548;SDS011;65391;52.068;4.542;2023-09-19T06:53:10;10;;;1.6;;
76548;SDS011;65391;52.068;4.542;2023-09-19T06:55:34;10;;;1.6;;
76548;SDS011;65391;52.068;4.542;2023-09-19T06:57:59;14.6;;;2.3;;
76548;SDS011;65391;52.068;4.542;2023-09-19T07:00:24;14.6;;;2.3;;
76548;SDS011;65391;52.068;4.542;2023-09-19T07:02:57;14.6;;;2.3;;
76548;SDS011;65391;52.068;4.542;2023-09-19T07:05:15;14.6;;;2.3;;
76548;SDS011;65391;52.068;4.542;2023-09-19T07:07:39;11.2;;;3;;
76548;SDS011;65391;52.068;4.542;2023-09-19T07:10:05;11.2;;;3;;
76548;SDS011;65391;52.068;4.542;2023-09-19T07:12:29;11.2;;;3;;
76548;SDS011;65391;52.068;4.542;2023-09-19T07:14:54;11.2;;;3;;
76548;SDS011;65391;52.068;4.542;2023-09-19T07:17:19;9.2;;;1.7;;
76548;SDS011;65391;52.068;4.542;2023-09-19T07:19:45;9.2;;;1.7;;
76548;SDS011;65391;52.068;4.542;2023-09-19T07:22:10;9.2;;;1.7;;
76548;SDS011;65391;52.068;4.542;2023-09-19T07:24:35;9.2;;;1.7;;
76548;SDS011;65391;52.068;4.542;2023-09-19T07:27:00;11.5;;;2.3;;
76548;SDS011;65391;52.068;4.542;2023-09-19T07:29:25;11.5;;;2.3;;
76548;SDS011;65391;52.068;4.542;2023-09-19T07:31:50;11.5;;;2.3;;
76548;SDS011;65391;52.068;4.542;2023-09-19T07:34:15;11.5;;;2.3;;
76548;SDS011;65391;52.068;4.542;2023-09-19T07:36:40;11.5;;;2.3;;
76548;SDS011;65391;52.068;4.542;2023-09-19T07:39:05;11;;;2.2;;
76548;SDS011;65391;52.068;4.542;2023-09-19T07:41:30;11;;;2.2;;
76548;SDS011;65391;52.068;4.542;2023-09-19T07:43:55;11;;;2.2;;
76548;SDS011;65391;52.068;4.542;2023-09-19T07:46:20;11;;;2.2;;
76548;SDS011;65391;52.068;4.542;2023-09-19T07:48:45;13.9;;;2.3;;
76548;SDS011;65391;52.068;4.542;2023-09-19T07:51:10;13.9;;;2.3;;
76548;SDS011;65391;52.068;4.542;2023-09-19T07:53:35;13.9;;;2.3;;
76548;SDS011;65391;52.068;4.542;2023-09-19T07:56:04;13.9;;;2.3;;
76548;SDS011;65391;52.068;4.542;2023-09-19T07:58:25;12.5;;;2.3;;
76548;SDS011;65391;52.068;4.542;2023-09-19T08:00:50;12.5;;;2.3;;
76548;SDS011;65391;52.068;4.542;2023-09-19T08:03:15;12.5;;;2.3;;
76548;SDS011;65391;52.068;4.542;2023-09-19T08:05:40;12.5;;;2.3;;
76548;SDS011;65391;52.068;4.542;2023-09-19T08:08:05;13.9;;;2.1;;
76548;SDS011;65391;52.068;4.542;2023-09-19T08:10:30;13.9;;;2.1;;
76548;SDS011;65391;52.068;4.542;2023-09-19T08:12:55;13.9;;;2.1;;
76548;SDS011;65391;52.068;4.542;2023-09-19T08:15:20;13.9;;;2.1;;
76548;SDS011;65391;52.068;4.542;2023-09-19T08:17:45;9.9;;;1.8;;
76548;SDS011;65391;52.068;4.542;2023-09-19T08:20:10;9.9;;;1.8;;
76548;SDS011;65391;52.068;4.542;2023-09-19T08:22:35;9.9;;;1.8;;
76548;SDS011;65391;52.068;4.542;2023-09-19T08:25:00;9.9;;;1.8;;
76548;SDS011;65391;52.068;4.542;2023-09-19T08:27:25;12.3;;;3.4;;
76548;SDS011;65391;52.068;4.542;2023-09-19T08:29:50;12.3;;;3.4;;
76548;SDS011;65391;52.068;4.542;2023-09-19T08:32:15;12.3;;;3.4;;
76548;SDS011;65391;52.068;4.542;2023-09-19T08:34:40;12.3;;;3.4;;
76548;SDS011;65391;52.068;4.542;2023-09-19T08:37:05;14.4;;;2.4;;
76548;SDS011;65391;52.068;4.542;2023-09-19T08:39:30;14.4;;;2.4;;
76548;SDS011;65391;52.068;4.542;2023-09-19T08:41:57;14.4;;;2.4;;
76548;SDS011;65391;52.068;4.542;2023-09-19T08:44:20;14.4;;;2.4;;
76548;SDS011;65391;52.068;4.542;2023-09-19T08:46:45;14.4;;;2.4;;
76548;SDS011;65391;52.068;4.542;2023-09-19T08:49:14;15.1;;;2.2;;
76548;SDS011;65391;52.068;4.542;2023-09-19T08:51:39;15.1;;;2.2;;
76548;SDS011;65391;52.068;4.542;2023-09-19T08:54:03;15.1;;;2.2;;
76548;SDS011;65391;52.068;4.542;2023-09-19T08:56:25;15.1;;;2.2;;
76548;SDS011;65391;52.068;4.542;2023-09-19T08:58:50;11.5;;;2;;
76548;SDS011;65391;52.068;4.542;2023-09-19T09:01:15;11.5;;;2;;
76548;SDS011;65391;52.068;4.542;2023-09-19T09:03:40;11.5;;;2;;
76548;SDS011;65391;52.068;4.542;2023-09-19T09:06:05;11.5;;;2;;
76548;SDS011;65391;52.068;4.542;2023-09-19T09:08:30;16.1;;;3.3;;
76548;SDS011;65391;52.068;4.542;2023-09-19T09:10:55;16.1;;;3.3;;
76548;SDS011;65391;52.068;4.542;2023-09-19T09:13:20;16.1;;;3.3;;
76548;SDS011;65391;52.068;4.542;2023-09-19T09:15:45;16.1;;;3.3;;
76548;SDS011;65391;52.068;4.542;2023-09-19T09:18:10;8.4;;;2.4;;
76548;SDS011;65391;52.068;4.542;2023-09-19T09:20:35;8.4;;;2.4;;
76548;SDS011;65391;52.068;4.542;2023-09-19T09:23:00;8.4;;;2.4;;
76548;SDS011;65391;52.068;4.542;2023-09-19T09:25:47;8.4;;;2.4;;
76548;SDS011;65391;52.068;4.542;2023-09-19T09:27:58;11.1;;;2.2;;
76548;SDS011;65391;52.068;4.542;2023-09-19T09:30:32;11.1;;;2.2;;
76548;SDS011;65391;52.068;4.542;2023-09-19T09:32:40;11.1;;;2.2;;
76548;SDS011;65391;52.068;4.542;2023-09-19T09:35:07;11.1;;;2.2;;
76548;SDS011;65391;52.068;4.542;2023-09-19T09:37:30;12.8;;;2.9;;
76548;SDS011;65391;52.068;4.542;2023-09-19T09:39:56;12.8;;;2.9;;
76548;SDS011;65391;52.068;4.542;2023-09-19T09:42:36;12.8;;;2.9;;
76548;SDS011;65391;52.068;4.542;2023-09-19T09:44:45;12.8;;;2.9;;
76548;SDS011;65391;52.068;4.542;2023-09-19T09:47:10;10;;;2.1;;
76548;SDS011;65391;52.068;4.542;2023-09-19T09:49:35;10;;;2.1;;
76548;SDS011;65391;52.068;4.542;2023-09-19T09:52:01;10;;;2.1;;
76548;SDS011;65391;52.068;4.542;2023-09-19T09:54:26;10;;;2.1;;
76548;SDS011;65391;52.068;4.542;2023-09-19T09:56:54;10;;;2.1;;
76548;SDS011;65391;52.068;4.542;2023-09-19T09:59:15;8.6;;;2.4;;
76548;SDS011;65391;52.068;4.542;2023-09-19T10:01:47;8.6;;;2.4;;
76548;SDS011;65391;52.068;4.542;2023-09-19T10:04:05;8.6;;;2.4;;
76548;SDS011;65391;52.068;4.542;2023-09-19T10:06:40;8.6;;;2.4;;
76548;SDS011;65391;52.068;4.542;2023-09-19T10:08:59;12.8;;;2.1;;
76548;SDS011;65391;52.068;4.542;2023-09-19T10:11:20;12.8;;;2.1;;
76548;SDS011;65391;52.068;4.542;2023-09-19T10:13:45;12.8;;;2.1;;
76548;SDS011;65391;52.068;4.542;2023-09-19T10:16:10;12.8;;;2.1;;
76548;SDS011;65391;52.068;4.542;2023-09-19T10:18:36;9.2;;;2.2;;
76548;SDS011;65391;52.068;4.542;2023-09-19T10:21:00;9.2;;;2.2;;
76548;SDS011;65391;52.068;4.542;2023-09-19T10:23:27;9.2;;;2.2;;
76548;SDS011;65391;52.068;4.542;2023-09-19T10:25:50;9.2;;;2.2;;
76548;SDS011;65391;52.068;4.542;2023-09-19T10:28:16;8.7;;;1.8;;
76548;SDS011;65391;52.068;4.542;2023-09-19T10:30:41;8.7;;;1.8;;
76548;SDS011;65391;52.068;4.542;2023-09-19T10:33:05;8.7;;;1.8;;
76548;SDS011;65391;52.068;4.542;2023-09-19T10:35:30;8.7;;;1.8;;
76548;SDS011;65391;52.068;4.542;2023-09-19T10:40:20;4.8;;;1.6;;
76548;SDS011;65391;52.068;4.542;2023-09-19T10:42:45;4.8;;;1.6;;
76548;SDS011;65391;52.068;4.542;2023-09-19T10:45:10;4.8;;;1.6;;
76548;SDS011;65391;52.068;4.542;2023-09-19T10:47:35;10.6;;;2.2;;
76548;SDS011;65391;52.068;4.542;2023-09-19T10:50:00;10.6;;;2.2;;
76548;SDS011;65391;52.068;4.542;2023-09-19T10:52:25;10.6;;;2.2;;
76548;SDS011;65391;52.068;4.542;2023-09-19T10:54:51;10.6;;;2.2;;
76548;SDS011;65391;52.068;4.542;2023-09-19T10:57:19;7;;;1.5;;
76548;SDS011;65391;52.068;4.542;2023-09-19T11:00:00;7;;;1.5;;
76548;SDS011;65391;52.068;4.542;2023-09-19T11:02:15;7;;;1.5;;
76548;SDS011;65391;52.068;4.542;2023-09-19T11:04:31;7;;;1.5;;
76548;SDS011;65391;52.068;4.542;2023-09-19T11:07:00;7;;;1.5;;
76548;SDS011;65391;52.068;4.542;2023-09-19T11:09:20;6.9;;;1.4;;
76548;SDS011;65391;52.068;4.542;2023-09-19T11:11:46;6.9;;;1.4;;
76548;SDS011;65391;52.068;4.542;2023-09-19T11:14:13;6.9;;;1.4;;
76548;SDS011;65391;52.068;4.542;2023-09-19T11:16:35;6.9;;;1.4;;
76548;SDS011;65391;52.068;4.542;2023-09-19T11:19:00;5.5;;;1.6;;
76548;SDS011;65391;52.068;4.542;2023-09-19T11:21:56;5.5;;;1.6;;
76548;SDS011;65391;52.068;4.542;2023-09-19T11:24:27;5.5;;;1.6;;
76548;SDS011;65391;52.068;4.542;2023-09-19T11:26:39;5.5;;;1.6;;
76548;SDS011;65391;52.068;4.542;2023-09-19T11:28:40;5.9;;;1.5;;
76548;SDS011;65391;52.068;4.542;2023-09-19T11:31:41;5.9;;;1.5;;
76548;SDS011;65391;52.068;4.542;2023-09-19T11:33:30;5.9;;;1.5;;
76548;SDS011;65391;52.068;4.542;2023-09-19T11:35:59;5.9;;;1.5;;
76548;SDS011;65391;52.068;4.542;2023-09-19T11:38:56;6.2;;;1.3;;
76548;SDS011;65391;52.068;4.542;2023-09-19T11:40:45;6.2;;;1.3;;
76548;SDS011;65391;52.068;4.542;2023-09-19T11:43:42;6.2;;;1.3;;
76548;SDS011;65391;52.068;4.542;2023-09-19T11:46:07;6.2;;;1.3;;
76548;SDS011;65391;52.068;4.542;2023-09-19T11:48:00;12.1;;;1.4;;
76548;SDS011;65391;52.068;4.542;2023-09-19T11:50:25;12.1;;;1.4;;
76548;SDS011;65391;52.068;4.542;2023-09-19T11:52:50;12.1;;;1.4;;
76548;SDS011;65391;52.068;4.542;2023-09-19T11:55:15;12.1;;;1.4;;
76548;SDS011;65391;52.068;4.542;2023-09-19T11:57:40;8.6;;;1.4;;
76548;SDS011;65391;52.068;4.542;2023-09-19T12:00:06;8.6;;;1.4;;
76548;SDS011;65391;52.068;4.542;2023-09-19T12:02:34;8.6;;;1.4;;
76548;SDS011;65391;52.068;4.542;2023-09-19T12:04:56;8.6;;;1.4;;
76548;SDS011;65391;52.068;4.542;2023-09-19T12:07:20;9.2;;;1.2;;
76548;SDS011;65391;52.068;4.542;2023-09-19T12:09:46;9.2;;;1.2;;
76548;SDS011;65391;52.068;4.542;2023-09-19T12:12:10;9.2;;;1.2;;
76548;SDS011;65391;52.068;4.542;2023-09-19T12:14:35;9.2;;;1.2;;
76548;SDS011;65391;52.068;4.542;2023-09-19T12:17:00;9.2;;;1.2;;
76548;SDS011;65391;52.068;4.542;2023-09-19T12:19:25;10.2;;;1;;
76548;SDS011;65391;52.068;4.542;2023-09-19T12:21:58;10.2;;;1;;
76548;SDS011;65391;52.068;4.542;2023-09-19T12:24:15;10.2;;;1;;
76548;SDS011;65391;52.068;4.542;2023-09-19T12:26:41;10.2;;;1;;
76548;SDS011;65391;52.068;4.542;2023-09-19T12:29:05;5.5;;;1.4;;
76548;SDS011;65391;52.068;4.542;2023-09-19T12:31:30;5.5;;;1.4;;
76548;SDS011;65391;52.068;4.542;2023-09-19T12:33:55;5.5;;;1.4;;
76548;SDS011;65391;52.068;4.542;2023-09-19T12:36:21;5.5;;;1.4;;
76548;SDS011;65391;52.068;4.542;2023-09-19T12:38:47;5.7;;;1.2;;
76548;SDS011;65391;52.068;4.542;2023-09-19T12:41:10;5.7;;;1.2;;
76548;SDS011;65391;52.068;4.542;2023-09-19T12:43:35;5.7;;;1.2;;
76548;SDS011;65391;52.068;4.542;2023-09-19T12:46:00;5.7;;;1.2;;
76548;SDS011;65391;52.068;4.542;2023-09-19T12:48:26;6;;;1.5;;
76548;SDS011;65391;52.068;4.542;2023-09-19T12:51:06;6;;;1.5;;
76548;SDS011;65391;52.068;4.542;2023-09-19T12:53:24;6;;;1.5;;
76548;SDS011;65391;52.068;4.542;2023-09-19T12:55:40;6;;;1.5;;
76548;SDS011;65391;52.068;4.542;2023-09-19T12:58:11;8;;;1.7;;
76548;SDS011;65391;52.068;4.542;2023-09-19T13:00:32;8;;;1.7;;
76548;SDS011;65391;52.068;4.542;2023-09-19T13:03:12;8;;;1.7;;
76548;SDS011;65391;52.068;4.542;2023-09-19T13:05:20;8;;;1.7;;
76548;SDS011;65391;52.068;4.542;2023-09-19T13:07:45;5.4;;;1.3;;
76548;SDS011;65391;52.068;4.542;2023-09-19T13:10:10;5.4;;;1.3;;
76548;SDS011;65391;52.068;4.542;2023-09-19T13:12:36;5.4;;;1.3;;
76548;SDS011;65391;52.068;4.542;2023-09-19T13:15:08;5.4;;;1.3;;
76548;SDS011;65391;52.068;4.542;2023-09-19T13:17:26;5.4;;;1.3;;
76548;SDS011;65391;52.068;4.542;2023-09-19T13:19:51;2.6;;;1;;
76548;SDS011;65391;52.068;4.542;2023-09-19T13:22:47;2.6;;;1;;
76548;SDS011;65391;52.068;4.542;2023-09-19T13:24:40;2.6;;;1;;
76548;SDS011;65391;52.068;4.542;2023-09-19T13:27:06;2.6;;;1;;
76548;SDS011;65391;52.068;4.542;2023-09-19T13:29:30;9;;;1.4;;
76548;SDS011;65391;52.068;4.542;2023-09-19T13:31:55;9;;;1.4;;
76548;SDS011;65391;52.068;4.542;2023-09-19T13:34:20;9;;;1.4;;
76548;SDS011;65391;52.068;4.542;2023-09-19T13:36:46;9;;;1.4;;
76548;SDS011;65391;52.068;4.542;2023-09-19T13:39:10;7.9;;;1.4;;
76548;SDS011;65391;52.068;4.542;2023-09-19T13:41:35;7.9;;;1.4;;
76548;SDS011;65391;52.068;4.542;2023-09-19T13:44:01;7.9;;;1.4;;
76548;SDS011;65391;52.068;4.542;2023-09-19T13:46:26;7.9;;;1.4;;
76548;SDS011;65391;52.068;4.542;2023-09-19T13:48:50;5.8;;;1.7;;
76548;SDS011;65391;52.068;4.542;2023-09-19T13:51:15;5.8;;;1.7;;
76548;SDS011;65391;52.068;4.542;2023-09-19T13:53:40;5.8;;;1.7;;
76548;SDS011;65391;52.068;4.542;2023-09-19T13:56:05;5.8;;;1.7;;
76548;SDS011;65391;52.068;4.542;2023-09-19T13:58:30;5.2;;;1.2;;
76548;SDS011;65391;52.068;4.542;2023-09-19T14:00:56;5.2;;;1.2;;
76548;SDS011;65391;52.068;4.542;2023-09-19T14:03:21;5.2;;;1.2;;
76548;SDS011;65391;52.068;4.542;2023-09-19T14:05:45;5.2;;;1.2;;
76548;SDS011;65391;52.068;4.542;2023-09-19T14:08:10;6.1;;;1.9;;
76548;SDS011;65391;52.068;4.542;2023-09-19T14:10:36;6.1;;;1.9;;
76548;SDS011;65391;52.068;4.542;2023-09-19T14:13:00;6.1;;;1.9;;
76548;SDS011;65391;52.068;4.542;2023-09-19T14:15:25;6.1;;;1.9;;
76548;SDS011;65391;52.068;4.542;2023-09-19T14:17:50;6.8;;;1.7;;
76548;SDS011;65391;52.068;4.542;2023-09-19T14:20:16;6.8;;;1.7;;
76548;SDS011;65391;52.068;4.542;2023-09-19T14:22:41;6.8;;;1.7;;
76548;SDS011;65391;52.068;4.542;2023-09-19T14:25:06;6.8;;;1.7;;
76548;SDS011;65391;52.068;4.542;2023-09-19T14:27:30;6.8;;;1.7;;
76548;SDS011;65391;52.068;4.542;2023-09-19T14:29:55;8.9;;;1.9;;
76548;SDS011;65391;52.068;4.542;2023-09-19T14:32:20;8.9;;;1.9;;
76548;SDS011;65391;52.068;4.542;2023-09-19T14:34:45;8.9;;;1.9;;
76548;SDS011;65391;52.068;4.542;2023-09-19T14:37:10;8.9;;;1.9;;
76548;SDS011;65391;52.068;4.542;2023-09-19T14:39:35;11;;;1.6;;
76548;SDS011;65391;52.068;4.542;2023-09-19T14:42:00;11;;;1.6;;
76548;SDS011;65391;52.068;4.542;2023-09-19T14:44:26;11;;;1.6;;
76548;SDS011;65391;52.068;4.542;2023-09-19T14:46:51;11;;;1.6;;
76548;SDS011;65391;52.068;4.542;2023-09-19T14:49:15;8.1;;;2.1;;
76548;SDS011;65391;52.068;4.542;2023-09-19T14:51:40;8.1;;;2.1;;
76548;SDS011;65391;52.068;4.542;2023-09-19T14:54:06;8.1;;;2.1;;
76548;SDS011;65391;52.068;4.542;2023-09-19T14:56:30;8.1;;;2.1;;
76548;SDS011;65391;52.068;4.542;2023-09-19T14:58:56;8.7;;;1.9;;
76548;SDS011;65391;52.068;4.542;2023-09-19T15:01:20;8.7;;;1.9;;
76548;SDS011;65391;52.068;4.542;2023-09-19T15:03:46;8.7;;;1.9;;